sensor_id;sensor_type;location;lat;lon;timestamp;temperature;humidity
27314;DHT22;14800;48.174;9.798;2023-07-20T00:01:45;22.00;55.60
27314;DHT22;14800;48.174;9.798;2023-07-20T00:04:11;22.00;55.70
27314;DHT22;14800;48.174;9.798;2023-07-20T00:06:37;22.00;55.70
27314;DHT22;14800;48.174;9.798;2023-07-20T00:09:09;22.00;56.20
27314;DHT22;14800;48.174;9.798;2023-07-20T00:11:37;22.00;56.40
27314;DHT22;14800;48.174;9.798;2023-07-20T00:14:04;22.00;56.30
27314;DHT22;14800;48.174;9.798;2023-07-20T00:16:30;22.00;56.00
27314;DHT22;14800;48.174;9.798;2023-07-20T00:18:56;21.90;56.00
27314;DHT22;14800;48.174;9.798;2023-07-20T00:21:22;21.90;56.10
27314;DHT22;14800;48.174;9.798;2023-07-20T00:23:47;21.90;56.10
27314;DHT22;14800;48.174;9.798;2023-07-20T00:26:13;21.90;56.00
27314;DHT22;14800;48.174;9.798;2023-07-20T00:28:38;21.90;56.10
27314;DHT22;14800;48.174;9.798;2023-07-20T00:31:04;21.80;56.10
27314;DHT22;14800;48.174;9.798;2023-07-20T00:33:30;21.80;56.10
27314;DHT22;14800;48.174;9.798;2023-07-20T00:35:56;21.80;56.30
27314;DHT22;14800;48.174;9.798;2023-07-20T00:38:22;21.80;56.30
27314;DHT22;14800;48.174;9.798;2023-07-20T00:40:47;21.80;56.60
27314;DHT22;14800;48.174;9.798;2023-07-20T00:43:15;21.90;56.60
27314;DHT22;14800;48.174;9.798;2023-07-20T00:45:41;21.90;56.80
27314;DHT22;14800;48.174;9.798;2023-07-20T00:48:07;21.90;56.60
27314;DHT22;14800;48.174;9.798;2023-07-20T00:50:33;21.90;56.60
27314;DHT22;14800;48.174;9.798;2023-07-20T00:52:59;21.80;56.60
27314;DHT22;14800;48.174;9.798;2023-07-20T00:55:26;21.80;56.70
27314;DHT22;14800;48.174;9.798;2023-07-20T00:57:52;21.80;56.70
27314;DHT22;14800;48.174;9.798;2023-07-20T01:00:18;21.70;56.70
27314;DHT22;14800;48.174;9.798;2023-07-20T01:02:45;21.70;56.90
27314;DHT22;14800;48.174;9.798;2023-07-20T01:05:11;21.70;56.80
27314;DHT22;14800;48.174;9.798;2023-07-20T01:07:59;21.60;56.60
27314;DHT22;14800;48.174;9.798;2023-07-20T01:10:43;21.60;56.80
27314;DHT22;14800;48.174;9.798;2023-07-20T01:13:10;21.50;56.80
27314;DHT22;14800;48.174;9.798;2023-07-20T01:15:36;21.50;56.40
27314;DHT22;14800;48.174;9.798;2023-07-20T01:18:02;21.40;56.50
27314;DHT22;14800;48.174;9.798;2023-07-20T01:20:30;21.40;56.50
27314;DHT22;14800;48.174;9.798;2023-07-20T01:31:35;21.20;57.20
27314;DHT22;14800;48.174;9.798;2023-07-20T01:34:03;21.10;57.00
27314;DHT22;14800;48.174;9.798;2023-07-20T01:36:34;21.00;57.10
27314;DHT22;14800;48.174;9.798;2023-07-20T01:39:00;21.00;57.40
27314;DHT22;14800;48.174;9.798;2023-07-20T01:41:27;21.00;58.10
27314;DHT22;14800;48.174;9.798;2023-07-20T01:43:53;21.00;57.60
27314;DHT22;14800;48.174;9.798;2023-07-20T01:46:22;21.00;57.80
27314;DHT22;14800;48.174;9.798;2023-07-20T01:48:48;20.90;57.90
27314;DHT22;14800;48.174;9.798;2023-07-20T01:51:13;20.80;58.00
27314;DHT22;14800;48.174;9.798;2023-07-20T01:53:39;20.80;57.90
27314;DHT22;14800;48.174;9.798;2023-07-20T01:56:05;20.80;57.90
27314;DHT22;14800;48.174;9.798;2023-07-20T01:58:30;20.80;57.90
27314;DHT22;14800;48.174;9.798;2023-07-20T02:00:56;20.80;57.90
27314;DHT22;14800;48.174;9.798;2023-07-20T02:03:21;20.80;57.80
27314;DHT22;14800;48.174;9.798;2023-07-20T02:05:49;20.80;57.70
27314;DHT22;14800;48.174;9.798;2023-07-20T02:08:14;20.80;57.60
27314;DHT22;14800;48.174;9.798;2023-07-20T02:10:41;20.80;57.50
27314;DHT22;14800;48.174;9.798;2023-07-20T02:13:07;20.80;57.50
27314;DHT22;14800;48.174;9.798;2023-07-20T02:15:33;20.80;57.60
27314;DHT22;14800;48.174;9.798;2023-07-20T02:17:58;20.80;57.60
27314;DHT22;14800;48.174;9.798;2023-07-20T02:20:24;20.80;57.70
27314;DHT22;14800;48.174;9.798;2023-07-20T02:22:49;20.70;57.80
27314;DHT22;14800;48.174;9.798;2023-07-20T02:25:15;20.70;58.00
27314;DHT22;14800;48.174;9.798;2023-07-20T02:27:41;20.70;58.00
27314;DHT22;14800;48.174;9.798;2023-07-20T02:30:07;20.70;58.00
27314;DHT22;14800;48.174;9.798;2023-07-20T02:32:34;20.70;58.10
27314;DHT22;14800;48.174;9.798;2023-07-20T02:35:00;20.60;58.00
27314;DHT22;14800;48.174;9.798;2023-07-20T02:37:25;20.60;58.10
27314;DHT22;14800;48.174;9.798;2023-07-20T02:39:51;20.60;58.10
27314;DHT22;14800;48.174;9.798;2023-07-20T02:42:17;20.50;58.10
27314;DHT22;14800;48.174;9.798;2023-07-20T02:44:43;20.50;58.30
27314;DHT22;14800;48.174;9.798;2023-07-20T02:47:08;20.50;58.30
27314;DHT22;14800;48.174;9.798;2023-07-20T02:49:34;20.40;58.30
27314;DHT22;14800;48.174;9.798;2023-07-20T02:52:00;20.40;58.30
27314;DHT22;14800;48.174;9.798;2023-07-20T02:54:25;20.30;58.60
27314;DHT22;14800;48.174;9.798;2023-07-20T02:56:51;20.30;58.60
27314;DHT22;14800;48.174;9.798;2023-07-20T02:59:16;20.20;58.50
27314;DHT22;14800;48.174;9.798;2023-07-20T03:01:42;20.30;58.60
27314;DHT22;14800;48.174;9.798;2023-07-20T03:04:08;20.20;58.50
27314;DHT22;14800;48.174;9.798;2023-07-20T03:06:36;20.20;58.70
27314;DHT22;14800;48.174;9.798;2023-07-20T03:09:02;20.20;58.70
27314;DHT22;14800;48.174;9.798;2023-07-20T03:11:27;20.20;58.70
27314;DHT22;14800;48.174;9.798;2023-07-20T03:13:53;20.20;59.00
27314;DHT22;14800;48.174;9.798;2023-07-20T03:16:19;20.10;59.10
27314;DHT22;14800;48.174;9.798;2023-07-20T03:18:46;20.20;59.10
27314;DHT22;14800;48.174;9.798;2023-07-20T03:21:12;20.10;59.10
27314;DHT22;14800;48.174;9.798;2023-07-20T03:23:38;20.10;58.70
27314;DHT22;14800;48.174;9.798;2023-07-20T03:26:04;20.10;59.00
27314;DHT22;14800;48.174;9.798;2023-07-20T03:28:29;20.00;58.80
27314;DHT22;14800;48.174;9.798;2023-07-20T03:30:56;20.00;58.80
27314;DHT22;14800;48.174;9.798;2023-07-20T03:33:24;19.90;58.90
27314;DHT22;14800;48.174;9.798;2023-07-20T03:35:50;19.90;59.70
27314;DHT22;14800;48.174;9.798;2023-07-20T03:38:15;19.90;59.10
27314;DHT22;14800;48.174;9.798;2023-07-20T03:40:49;19.90;58.90
27314;DHT22;14800;48.174;9.798;2023-07-20T03:43:15;19.90;59.30
27314;DHT22;14800;48.174;9.798;2023-07-20T03:45:41;19.90;59.20
27314;DHT22;14800;48.174;9.798;2023-07-20T03:48:06;19.80;59.20
27314;DHT22;14800;48.174;9.798;2023-07-20T03:50:32;19.80;59.30
27314;DHT22;14800;48.174;9.798;2023-07-20T03:52:58;19.70;59.40
27314;DHT22;14800;48.174;9.798;2023-07-20T03:55:24;19.70;59.30
27314;DHT22;14800;48.174;9.798;2023-07-20T03:57:49;19.70;59.40
27314;DHT22;14800;48.174;9.798;2023-07-20T04:00:17;19.70;59.90
27314;DHT22;14800;48.174;9.798;2023-07-20T04:02:43;19.70;59.90
27314;DHT22;14800;48.174;9.798;2023-07-20T04:05:09;19.70;60.00
27314;DHT22;14800;48.174;9.798;2023-07-20T04:07:35;19.60;60.00
27314;DHT22;14800;48.174;9.798;2023-07-20T04:10:00;19.60;60.20
27314;DHT22;14800;48.174;9.798;2023-07-20T04:12:26;19.60;60.10
27314;DHT22;14800;48.174;9.798;2023-07-20T04:14:51;19.60;60.30
27314;DHT22;14800;48.174;9.798;2023-07-20T04:17:17;19.60;60.30
27314;DHT22;14800;48.174;9.798;2023-07-20T04:19:43;19.60;60.10
27314;DHT22;14800;48.174;9.798;2023-07-20T04:22:09;19.60;60.00
27314;DHT22;14800;48.174;9.798;2023-07-20T04:24:35;19.60;60.00
27314;DHT22;14800;48.174;9.798;2023-07-20T04:27:00;19.50;60.10
27314;DHT22;14800;48.174;9.798;2023-07-20T04:29:26;19.50;60.10
27314;DHT22;14800;48.174;9.798;2023-07-20T04:31:52;19.50;60.30
27314;DHT22;14800;48.174;9.798;2023-07-20T04:34:17;19.40;60.40
27314;DHT22;14800;48.174;9.798;2023-07-20T04:36:43;19.50;60.80
27314;DHT22;14800;48.174;9.798;2023-07-20T04:39:09;19.50;61.10
27314;DHT22;14800;48.174;9.798;2023-07-20T04:41:35;19.50;61.30
27314;DHT22;14800;48.174;9.798;2023-07-20T04:44:01;19.50;61.20
27314;DHT22;14800;48.174;9.798;2023-07-20T04:46:26;19.50;60.80
27314;DHT22;14800;48.174;9.798;2023-07-20T04:48:52;19.50;60.60
27314;DHT22;14800;48.174;9.798;2023-07-20T04:51:18;19.50;60.70
27314;DHT22;14800;48.174;9.798;2023-07-20T04:53:49;19.40;60.80
27314;DHT22;14800;48.174;9.798;2023-07-20T04:56:15;19.40;60.80
27314;DHT22;14800;48.174;9.798;2023-07-20T04:58:40;19.30;60.90
27314;DHT22;14800;48.174;9.798;2023-07-20T05:01:06;19.30;61.00
27314;DHT22;14800;48.174;9.798;2023-07-20T05:03:31;19.30;61.10
27314;DHT22;14800;48.174;9.798;2023-07-20T05:05:57;19.30;61.20
27314;DHT22;14800;48.174;9.798;2023-07-20T05:08:23;19.20;61.20
27314;DHT22;14800;48.174;9.798;2023-07-20T05:10:49;19.30;61.30
27314;DHT22;14800;48.174;9.798;2023-07-20T05:13:15;19.30;61.30
27314;DHT22;14800;48.174;9.798;2023-07-20T05:15:40;19.30;61.60
27314;DHT22;14800;48.174;9.798;2023-07-20T05:18:06;19.30;61.30
27314;DHT22;14800;48.174;9.798;2023-07-20T05:20:32;19.40;61.40
27314;DHT22;14800;48.174;9.798;2023-07-20T05:22:59;19.40;61.50
27314;DHT22;14800;48.174;9.798;2023-07-20T05:25:24;19.50;61.70
27314;DHT22;14800;48.174;9.798;2023-07-20T05:27:50;19.50;61.70
27314;DHT22;14800;48.174;9.798;2023-07-20T05:30:16;19.50;61.70
27314;DHT22;14800;48.174;9.798;2023-07-20T05:32:41;19.60;61.50
27314;DHT22;14800;48.174;9.798;2023-07-20T05:35:07;19.60;61.30
27314;DHT22;14800;48.174;9.798;2023-07-20T05:37:34;19.70;61.30
27314;DHT22;14800;48.174;9.798;2023-07-20T05:39:59;19.70;62.40
27314;DHT22;14800;48.174;9.798;2023-07-20T05:42:25;19.80;61.30
27314;DHT22;14800;48.174;9.798;2023-07-20T05:44:51;19.90;61.00
27314;DHT22;14800;48.174;9.798;2023-07-20T05:47:18;19.90;60.80
27314;DHT22;14800;48.174;9.798;2023-07-20T05:49:43;20.00;60.00
27314;DHT22;14800;48.174;9.798;2023-07-20T05:52:09;20.00;59.50
27314;DHT22;14800;48.174;9.798;2023-07-20T05:54:35;20.10;59.80
27314;DHT22;14800;48.174;9.798;2023-07-20T05:57:00;20.20;60.60
27314;DHT22;14800;48.174;9.798;2023-07-20T05:59:27;20.20;59.30
27314;DHT22;14800;48.174;9.798;2023-07-20T06:01:54;20.30;59.00
27314;DHT22;14800;48.174;9.798;2023-07-20T06:04:20;20.30;59.00
27314;DHT22;14800;48.174;9.798;2023-07-20T06:06:46;20.40;58.70
27314;DHT22;14800;48.174;9.798;2023-07-20T06:09:12;20.50;58.60
27314;DHT22;14800;48.174;9.798;2023-07-20T06:11:40;20.50;58.20
27314;DHT22;14800;48.174;9.798;2023-07-20T06:14:06;20.60;58.00
27314;DHT22;14800;48.174;9.798;2023-07-20T06:16:32;20.60;57.80
27314;DHT22;14800;48.174;9.798;2023-07-20T06:19:00;20.60;57.50
27314;DHT22;14800;48.174;9.798;2023-07-20T06:21:25;20.60;57.40
27314;DHT22;14800;48.174;9.798;2023-07-20T06:23:51;20.60;57.60
27314;DHT22;14800;48.174;9.798;2023-07-20T06:26:17;20.60;58.10
27314;DHT22;14800;48.174;9.798;2023-07-20T06:28:42;20.60;58.00
27314;DHT22;14800;48.174;9.798;2023-07-20T06:31:08;20.60;57.70
27314;DHT22;14800;48.174;9.798;2023-07-20T06:33:33;20.60;57.50
27314;DHT22;14800;48.174;9.798;2023-07-20T06:36:00;20.60;57.70
27314;DHT22;14800;48.174;9.798;2023-07-20T06:38:25;20.60;57.80
27314;DHT22;14800;48.174;9.798;2023-07-20T06:40:51;20.60;57.70
27314;DHT22;14800;48.174;9.798;2023-07-20T06:43:18;20.60;57.70
27314;DHT22;14800;48.174;9.798;2023-07-20T06:45:43;20.60;57.50
27314;DHT22;14800;48.174;9.798;2023-07-20T06:48:09;20.60;57.70
27314;DHT22;14800;48.174;9.798;2023-07-20T06:50:35;20.70;57.60
27314;DHT22;14800;48.174;9.798;2023-07-20T06:53:01;20.70;57.70
27314;DHT22;14800;48.174;9.798;2023-07-20T06:55:29;20.70;57.60
27314;DHT22;14800;48.174;9.798;2023-07-20T06:57:54;20.80;57.80
27314;DHT22;14800;48.174;9.798;2023-07-20T07:00:20;20.80;57.90
27314;DHT22;14800;48.174;9.798;2023-07-20T07:02:46;20.80;58.00
27314;DHT22;14800;48.174;9.798;2023-07-20T07:05:11;20.80;57.80
27314;DHT22;14800;48.174;9.798;2023-07-20T07:07:38;20.80;58.00
27314;DHT22;14800;48.174;9.798;2023-07-20T07:10:05;20.80;58.00
27314;DHT22;14800;48.174;9.798;2023-07-20T07:12:30;20.90;57.60
27314;DHT22;14800;48.174;9.798;2023-07-20T07:14:56;21.00;58.00
27314;DHT22;14800;48.174;9.798;2023-07-20T07:17:22;21.00;57.90
27314;DHT22;14800;48.174;9.798;2023-07-20T07:19:47;21.10;58.60
27314;DHT22;14800;48.174;9.798;2023-07-20T07:22:13;21.20;57.40
27314;DHT22;14800;48.174;9.798;2023-07-20T07:24:39;21.20;57.10
27314;DHT22;14800;48.174;9.798;2023-07-20T07:27:07;21.20;56.90
27314;DHT22;14800;48.174;9.798;2023-07-20T07:29:33;21.20;57.00
27314;DHT22;14800;48.174;9.798;2023-07-20T07:31:59;21.30;57.10
27314;DHT22;14800;48.174;9.798;2023-07-20T07:34:25;21.30;57.10
27314;DHT22;14800;48.174;9.798;2023-07-20T07:36:51;21.30;57.10
27314;DHT22;14800;48.174;9.798;2023-07-20T07:39:16;21.40;57.10
27314;DHT22;14800;48.174;9.798;2023-07-20T07:41:42;21.50;57.20
27314;DHT22;14800;48.174;9.798;2023-07-20T07:44:07;21.60;57.00
27314;DHT22;14800;48.174;9.798;2023-07-20T07:46:33;21.70;56.70
27314;DHT22;14800;48.174;9.798;2023-07-20T07:48:58;21.80;56.40
27314;DHT22;14800;48.174;9.798;2023-07-20T07:51:24;21.90;56.00
27314;DHT22;14800;48.174;9.798;2023-07-20T07:53:50;22.00;56.00
27314;DHT22;14800;48.174;9.798;2023-07-20T07:56:15;22.10;55.60
27314;DHT22;14800;48.174;9.798;2023-07-20T07:58:42;22.10;55.00
27314;DHT22;14800;48.174;9.798;2023-07-20T08:01:08;22.10;55.00
27314;DHT22;14800;48.174;9.798;2023-07-20T08:03:34;22.10;54.40
27314;DHT22;14800;48.174;9.798;2023-07-20T08:06:01;22.20;54.60
27314;DHT22;14800;48.174;9.798;2023-07-20T08:08:30;22.20;54.80
27314;DHT22;14800;48.174;9.798;2023-07-20T08:10:55;22.20;54.40
27314;DHT22;14800;48.174;9.798;2023-07-20T08:13:21;22.30;54.90
27314;DHT22;14800;48.174;9.798;2023-07-20T08:15:50;22.40;54.60
27314;DHT22;14800;48.174;9.798;2023-07-20T08:18:17;22.40;53.70
27314;DHT22;14800;48.174;9.798;2023-07-20T08:20:46;22.50;53.70
27314;DHT22;14800;48.174;9.798;2023-07-20T08:23:13;22.50;53.50
27314;DHT22;14800;48.174;9.798;2023-07-20T08:25:39;22.60;53.50
27314;DHT22;14800;48.174;9.798;2023-07-20T08:28:07;22.70;53.50
27314;DHT22;14800;48.174;9.798;2023-07-20T08:30:44;22.70;53.40
27314;DHT22;14800;48.174;9.798;2023-07-20T08:33:12;22.80;53.30
27314;DHT22;14800;48.174;9.798;2023-07-20T08:35:38;22.90;53.60
27314;DHT22;14800;48.174;9.798;2023-07-20T08:38:03;23.00;53.80
27314;DHT22;14800;48.174;9.798;2023-07-20T08:40:34;23.10;53.80
27314;DHT22;14800;48.174;9.798;2023-07-20T08:43:04;23.10;52.60
27314;DHT22;14800;48.174;9.798;2023-07-20T08:45:33;23.20;52.30
27314;DHT22;14800;48.174;9.798;2023-07-20T08:48:01;23.30;51.60
27314;DHT22;14800;48.174;9.798;2023-07-20T08:50:30;23.30;52.00
27314;DHT22;14800;48.174;9.798;2023-07-20T08:52:58;23.40;51.30
27314;DHT22;14800;48.174;9.798;2023-07-20T08:55:25;23.40;50.50
27314;DHT22;14800;48.174;9.798;2023-07-20T08:57:54;23.40;50.30
27314;DHT22;14800;48.174;9.798;2023-07-20T09:00:21;23.50;50.20
27314;DHT22;14800;48.174;9.798;2023-07-20T09:02:49;23.50;50.70
27314;DHT22;14800;48.174;9.798;2023-07-20T09:05:15;23.50;50.90
27314;DHT22;14800;48.174;9.798;2023-07-20T09:07:41;23.50;50.80
27314;DHT22;14800;48.174;9.798;2023-07-20T09:10:07;23.60;51.30
27314;DHT22;14800;48.174;9.798;2023-07-20T09:12:42;23.60;50.60
27314;DHT22;14800;48.174;9.798;2023-07-20T09:15:09;23.60;51.00
27314;DHT22;14800;48.174;9.798;2023-07-20T09:17:34;23.60;50.70
27314;DHT22;14800;48.174;9.798;2023-07-20T09:20:04;23.60;50.60
27314;DHT22;14800;48.174;9.798;2023-07-20T09:22:33;23.60;51.00
27314;DHT22;14800;48.174;9.798;2023-07-20T09:24:59;23.70;51.50
27314;DHT22;14800;48.174;9.798;2023-07-20T09:27:36;23.80;52.00
27314;DHT22;14800;48.174;9.798;2023-07-20T09:30:03;23.90;51.30
27314;DHT22;14800;48.174;9.798;2023-07-20T09:32:29;24.00;51.60
27314;DHT22;14800;48.174;9.798;2023-07-20T09:34:54;24.10;51.30
27314;DHT22;14800;48.174;9.798;2023-07-20T09:37:21;24.10;51.20
27314;DHT22;14800;48.174;9.798;2023-07-20T09:39:47;24.20;50.50
27314;DHT22;14800;48.174;9.798;2023-07-20T09:42:15;24.30;50.40
27314;DHT22;14800;48.174;9.798;2023-07-20T09:44:43;24.40;51.00
27314;DHT22;14800;48.174;9.798;2023-07-20T09:47:09;24.50;51.30
27314;DHT22;14800;48.174;9.798;2023-07-20T09:49:39;24.60;50.90
27314;DHT22;14800;48.174;9.798;2023-07-20T09:52:07;24.70;50.50
27314;DHT22;14800;48.174;9.798;2023-07-20T09:54:33;24.80;50.50
27314;DHT22;14800;48.174;9.798;2023-07-20T09:57:00;24.90;50.30
27314;DHT22;14800;48.174;9.798;2023-07-20T09:59:26;25.10;50.10
27314;DHT22;14800;48.174;9.798;2023-07-20T10:01:53;25.10;50.50
27314;DHT22;14800;48.174;9.798;2023-07-20T10:04:23;25.30;49.40
27314;DHT22;14800;48.174;9.798;2023-07-20T10:06:50;25.40;49.20
27314;DHT22;14800;48.174;9.798;2023-07-20T10:09:18;25.40;48.70
27314;DHT22;14800;48.174;9.798;2023-07-20T10:11:48;25.30;47.90
27314;DHT22;14800;48.174;9.798;2023-07-20T10:14:19;25.30;47.90
27314;DHT22;14800;48.174;9.798;2023-07-20T10:16:50;25.30;48.30
27314;DHT22;14800;48.174;9.798;2023-07-20T10:19:47;25.20;48.50
27314;DHT22;14800;48.174;9.798;2023-07-20T10:22:16;25.20;48.20
27314;DHT22;14800;48.174;9.798;2023-07-20T10:24:46;25.20;48.70
27314;DHT22;14800;48.174;9.798;2023-07-20T10:27:12;25.20;48.90
27314;DHT22;14800;48.174;9.798;2023-07-20T10:29:40;25.10;48.50
27314;DHT22;14800;48.174;9.798;2023-07-20T10:32:07;25.20;48.50
27314;DHT22;14800;48.174;9.798;2023-07-20T10:34:33;25.20;49.20
27314;DHT22;14800;48.174;9.798;2023-07-20T10:36:59;25.20;48.10
27314;DHT22;14800;48.174;9.798;2023-07-20T10:39:26;25.20;48.50
27314;DHT22;14800;48.174;9.798;2023-07-20T10:44:29;25.40;49.30
27314;DHT22;14800;48.174;9.798;2023-07-20T10:47:03;25.40;48.90
27314;DHT22;14800;48.174;9.798;2023-07-20T10:49:33;25.50;48.10
27314;DHT22;14800;48.174;9.798;2023-07-20T10:52:00;25.50;48.70
27314;DHT22;14800;48.174;9.798;2023-07-20T10:57:21;25.70;48.70
27314;DHT22;14800;48.174;9.798;2023-07-20T10:59:47;25.80;48.70
27314;DHT22;14800;48.174;9.798;2023-07-20T11:02:12;26.00;48.50
27314;DHT22;14800;48.174;9.798;2023-07-20T11:04:42;26.10;47.80
27314;DHT22;14800;48.174;9.798;2023-07-20T11:07:09;26.20;46.80
27314;DHT22;14800;48.174;9.798;2023-07-20T11:09:35;26.20;47.30
27314;DHT22;14800;48.174;9.798;2023-07-20T11:12:17;26.10;46.20
27314;DHT22;14800;48.174;9.798;2023-07-20T11:14:56;26.10;45.60
27314;DHT22;14800;48.174;9.798;2023-07-20T11:17:32;26.10;46.20
27314;DHT22;14800;48.174;9.798;2023-07-20T11:19:59;26.10;45.40
27314;DHT22;14800;48.174;9.798;2023-07-20T11:22:30;26.10;45.90
27314;DHT22;14800;48.174;9.798;2023-07-20T11:24:57;26.00;45.80
27314;DHT22;14800;48.174;9.798;2023-07-20T11:27:23;26.00;45.70
27314;DHT22;14800;48.174;9.798;2023-07-20T11:29:49;26.00;45.80
27314;DHT22;14800;48.174;9.798;2023-07-20T11:32:22;26.10;46.10
27314;DHT22;14800;48.174;9.798;2023-07-20T11:34:48;26.20;46.30
27314;DHT22;14800;48.174;9.798;2023-07-20T11:37:14;26.20;46.60
27314;DHT22;14800;48.174;9.798;2023-07-20T11:39:40;26.30;45.90
27314;DHT22;14800;48.174;9.798;2023-07-20T11:42:06;26.40;45.90
27314;DHT22;14800;48.174;9.798;2023-07-20T11:44:34;26.50;45.10
27314;DHT22;14800;48.174;9.798;2023-07-20T11:49:26;26.50;44.40
27314;DHT22;14800;48.174;9.798;2023-07-20T11:51:52;26.60;44.50
27314;DHT22;14800;48.174;9.798;2023-07-20T11:54:18;26.60;44.40
27314;DHT22;14800;48.174;9.798;2023-07-20T11:56:44;26.60;44.60
27314;DHT22;14800;48.174;9.798;2023-07-20T11:59:09;26.60;45.20
27314;DHT22;14800;48.174;9.798;2023-07-20T12:01:35;26.60;44.80
27314;DHT22;14800;48.174;9.798;2023-07-20T12:04:03;26.60;45.20
27314;DHT22;14800;48.174;9.798;2023-07-20T12:06:29;26.70;44.80
27314;DHT22;14800;48.174;9.798;2023-07-20T12:08:56;26.70;44.80
27314;DHT22;14800;48.174;9.798;2023-07-20T12:14:00;26.70;43.80
27314;DHT22;14800;48.174;9.798;2023-07-20T12:16:29;26.60;44.10
27314;DHT22;14800;48.174;9.798;2023-07-20T12:19:08;26.50;44.50
27314;DHT22;14800;48.174;9.798;2023-07-20T12:21:35;26.60;44.40
27314;DHT22;14800;48.174;9.798;2023-07-20T12:24:05;26.50;44.70
27314;DHT22;14800;48.174;9.798;2023-07-20T12:26:33;26.50;44.90
27314;DHT22;14800;48.174;9.798;2023-07-20T12:28:59;26.60;44.40
27314;DHT22;14800;48.174;9.798;2023-07-20T12:31:25;26.60;45.00
27314;DHT22;14800;48.174;9.798;2023-07-20T12:33:52;26.70;45.00
27314;DHT22;14800;48.174;9.798;2023-07-20T12:36:18;26.70;45.50
27314;DHT22;14800;48.174;9.798;2023-07-20T12:38:44;26.80;45.20
27314;DHT22;14800;48.174;9.798;2023-07-20T12:41:11;26.80;44.80
27314;DHT22;14800;48.174;9.798;2023-07-20T12:43:38;26.90;44.40
27314;DHT22;14800;48.174;9.798;2023-07-20T12:46:04;27.00;44.40
27314;DHT22;14800;48.174;9.798;2023-07-20T12:48:30;27.10;44.30
27314;DHT22;14800;48.174;9.798;2023-07-20T12:50:55;27.10;43.90
27314;DHT22;14800;48.174;9.798;2023-07-20T12:53:21;27.10;43.00
27314;DHT22;14800;48.174;9.798;2023-07-20T12:55:47;27.10;42.80
27314;DHT22;14800;48.174;9.798;2023-07-20T12:58:13;27.10;43.40
27314;DHT22;14800;48.174;9.798;2023-07-20T13:00:39;27.10;43.40
27314;DHT22;14800;48.174;9.798;2023-07-20T13:03:05;27.00;43.70
27314;DHT22;14800;48.174;9.798;2023-07-20T13:05:32;27.00;43.30
27314;DHT22;14800;48.174;9.798;2023-07-20T13:07:58;27.00;43.10
27314;DHT22;14800;48.174;9.798;2023-07-20T13:10:24;26.90;43.10
27314;DHT22;14800;48.174;9.798;2023-07-20T13:12:50;26.90;43.20
27314;DHT22;14800;48.174;9.798;2023-07-20T13:15:17;26.80;43.20
27314;DHT22;14800;48.174;9.798;2023-07-20T13:17:42;26.70;43.00
27314;DHT22;14800;48.174;9.798;2023-07-20T13:20:09;26.60;43.10
27314;DHT22;14800;48.174;9.798;2023-07-20T13:22:40;26.60;43.70
27314;DHT22;14800;48.174;9.798;2023-07-20T13:25:06;26.60;44.10
27314;DHT22;14800;48.174;9.798;2023-07-20T13:27:33;26.60;44.30
27314;DHT22;14800;48.174;9.798;2023-07-20T13:30:00;26.60;43.90
27314;DHT22;14800;48.174;9.798;2023-07-20T13:32:26;26.60;44.10
27314;DHT22;14800;48.174;9.798;2023-07-20T13:34:52;26.70;44.70
27314;DHT22;14800;48.174;9.798;2023-07-20T13:37:18;26.80;44.30
27314;DHT22;14800;48.174;9.798;2023-07-20T13:39:43;26.80;43.50
27314;DHT22;14800;48.174;9.798;2023-07-20T13:42:10;26.90;43.60
27314;DHT22;14800;48.174;9.798;2023-07-20T13:44:37;26.90;43.30
27314;DHT22;14800;48.174;9.798;2023-07-20T13:47:03;26.90;43.10
27314;DHT22;14800;48.174;9.798;2023-07-20T13:49:30;26.90;43.10
27314;DHT22;14800;48.174;9.798;2023-07-20T13:51:56;26.90;43.20
27314;DHT22;14800;48.174;9.798;2023-07-20T13:54:25;26.90;43.00
27314;DHT22;14800;48.174;9.798;2023-07-20T13:56:51;27.00;42.60
27314;DHT22;14800;48.174;9.798;2023-07-20T13:59:18;26.90;42.60
27314;DHT22;14800;48.174;9.798;2023-07-20T14:01:43;27.00;42.80
27314;DHT22;14800;48.174;9.798;2023-07-20T14:04:09;27.00;42.80
27314;DHT22;14800;48.174;9.798;2023-07-20T14:06:35;27.10;42.40
27314;DHT22;14800;48.174;9.798;2023-07-20T14:09:01;27.10;43.00
27314;DHT22;14800;48.174;9.798;2023-07-20T14:11:28;27.10;43.10
27314;DHT22;14800;48.174;9.798;2023-07-20T14:13:54;27.20;42.90
27314;DHT22;14800;48.174;9.798;2023-07-20T14:16:20;27.30;42.90
27314;DHT22;14800;48.174;9.798;2023-07-20T14:18:46;27.40;43.30
27314;DHT22;14800;48.174;9.798;2023-07-20T14:21:14;27.40;42.30
27314;DHT22;14800;48.174;9.798;2023-07-20T14:23:40;27.50;41.60
27314;DHT22;14800;48.174;9.798;2023-07-20T14:26:05;27.50;41.80
27314;DHT22;14800;48.174;9.798;2023-07-20T14:28:31;27.60;41.90
27314;DHT22;14800;48.174;9.798;2023-07-20T14:30:57;27.60;41.50
27314;DHT22;14800;48.174;9.798;2023-07-20T14:33:23;27.60;41.20
27314;DHT22;14800;48.174;9.798;2023-07-20T14:35:48;27.60;41.20
27314;DHT22;14800;48.174;9.798;2023-07-20T14:38:14;27.60;41.30
27314;DHT22;14800;48.174;9.798;2023-07-20T14:40:40;27.50;41.60
27314;DHT22;14800;48.174;9.798;2023-07-20T14:43:06;27.40;41.80
27314;DHT22;14800;48.174;9.798;2023-07-20T14:45:32;27.30;41.90
27314;DHT22;14800;48.174;9.798;2023-07-20T14:47:57;27.30;41.60
27314;DHT22;14800;48.174;9.798;2023-07-20T14:50:23;27.30;41.90
27314;DHT22;14800;48.174;9.798;2023-07-20T14:52:49;27.30;41.80
27314;DHT22;14800;48.174;9.798;2023-07-20T14:55:15;27.30;41.50
27314;DHT22;14800;48.174;9.798;2023-07-20T14:57:41;27.40;41.40
27314;DHT22;14800;48.174;9.798;2023-07-20T15:00:07;27.50;41.90
27314;DHT22;14800;48.174;9.798;2023-07-20T15:02:36;27.60;42.40
27314;DHT22;14800;48.174;9.798;2023-07-20T15:05:02;27.70;41.20
27314;DHT22;14800;48.174;9.798;2023-07-20T15:07:28;27.80;40.70
27314;DHT22;14800;48.174;9.798;2023-07-20T15:09:54;27.80;41.00
27314;DHT22;14800;48.174;9.798;2023-07-20T15:12:19;27.90;41.00
27314;DHT22;14800;48.174;9.798;2023-07-20T15:15:01;28.00;40.20
27314;DHT22;14800;48.174;9.798;2023-07-20T15:17:27;28.00;40.20
27314;DHT22;14800;48.174;9.798;2023-07-20T15:19:53;28.00;40.40
27314;DHT22;14800;48.174;9.798;2023-07-20T15:22:19;28.00;40.80
27314;DHT22;14800;48.174;9.798;2023-07-20T15:24:44;27.90;40.80
27314;DHT22;14800;48.174;9.798;2023-07-20T15:27:10;27.90;40.80
27314;DHT22;14800;48.174;9.798;2023-07-20T15:29:35;27.80;40.70
27314;DHT22;14800;48.174;9.798;2023-07-20T15:32:01;27.80;40.60
27314;DHT22;14800;48.174;9.798;2023-07-20T15:34:26;27.80;40.30
27314;DHT22;14800;48.174;9.798;2023-07-20T15:36:53;27.70;40.40
27314;DHT22;14800;48.174;9.798;2023-07-20T15:39:19;27.70;40.40
27314;DHT22;14800;48.174;9.798;2023-07-20T15:41:47;27.60;40.80
27314;DHT22;14800;48.174;9.798;2023-07-20T15:44:13;27.50;40.30
27314;DHT22;14800;48.174;9.798;2023-07-20T15:49:04;27.30;40.50